sensor_id;sensor_type;location;lat;lon;timestamp;pressure;altitude;pressure_sealevel;temperature;humidity
75051;BME280;63628;47.656;11.310;2022-12-08T00:00:24;94335.44;;;3.80;83.19
75051;BME280;63628;47.656;11.310;2022-12-08T00:02:51;94330.81;;;3.76;83.26
75051;BME280;63628;47.656;11.310;2022-12-08T00:05:18;94322.75;;;3.71;84.15
75051;BME280;63628;47.656;11.310;2022-12-08T00:08:04;94316.13;;;3.75;83.21
75051;BME280;63628;47.656;11.310;2022-12-08T00:10:50;94317.72;;;3.76;83.11
75051;BME280;63628;47.656;11.310;2022-12-08T00:13:16;94311.69;;;3.75;83.73
75051;BME280;63628;47.656;11.310;2022-12-08T00:15:43;94302.44;;;3.73;83.45
75051;BME280;63628;47.656;11.310;2022-12-08T00:18:09;94303.22;;;3.73;83.71
75051;BME280;63628;47.656;11.310;2022-12-08T00:20:36;94304.25;;;3.72;83.88
75051;BME280;63628;47.656;11.310;2022-12-08T00:23:02;94300.63;;;3.73;84.00
75051;BME280;63628;47.656;11.310;2022-12-08T00:25:34;94301.22;;;3.75;83.50
75051;BME280;63628;47.656;11.310;2022-12-08T00:28:01;94297.41;;;3.71;83.62
75051;BME280;63628;47.656;11.310;2022-12-08T00:30:27;94298.41;;;3.70;83.48
75051;BME280;63628;47.656;11.310;2022-12-08T00:32:54;94287.94;;;3.70;83.65
75051;BME280;63628;47.656;11.310;2022-12-08T00:35:20;94291.16;;;3.72;83.79
75051;BME280;63628;47.656;11.310;2022-12-08T00:37:47;94292.75;;;3.73;83.00
75051;BME280;63628;47.656;11.310;2022-12-08T00:40:14;94295.78;;;3.70;83.07
75051;BME280;63628;47.656;11.310;2022-12-08T00:42:41;94299.22;;;3.71;83.22
75051;BME280;63628;47.656;11.310;2022-12-08T00:45:09;94297.19;;;3.73;83.61
75051;BME280;63628;47.656;11.310;2022-12-08T00:47:36;94293.78;;;3.72;83.03
75051;BME280;63628;47.656;11.310;2022-12-08T00:50:02;94300.22;;;3.70;83.06
75051;BME280;63628;47.656;11.310;2022-12-08T00:52:29;94296.00;;;3.69;83.70
75051;BME280;63628;47.656;11.310;2022-12-08T00:54:56;94296.19;;;3.67;83.96
75051;BME280;63628;47.656;11.310;2022-12-08T00:57:23;94297.81;;;3.68;83.39
75051;BME280;63628;47.656;11.310;2022-12-08T00:59:50;94297.59;;;3.70;83.66
75051;BME280;63628;47.656;11.310;2022-12-08T01:02:17;94305.66;;;3.68;84.06
75051;BME280;63628;47.656;11.310;2022-12-08T01:04:44;94296.19;;;3.67;83.77
75051;BME280;63628;47.656;11.310;2022-12-08T01:07:10;94297.00;;;3.68;83.29
75051;BME280;63628;47.656;11.310;2022-12-08T01:09:37;94298.41;;;3.70;83.12
75051;BME280;63628;47.656;11.310;2022-12-08T01:12:04;94303.03;;;3.68;83.23
75051;BME280;63628;47.656;11.310;2022-12-08T01:14:31;94304.25;;;3.66;83.53
75051;BME280;63628;47.656;11.310;2022-12-08T01:16:59;94303.63;;;3.64;83.29
75051;BME280;63628;47.656;11.310;2022-12-08T01:19:26;94303.63;;;3.64;83.85
75051;BME280;63628;47.656;11.310;2022-12-08T01:21:52;94300.81;;;3.65;83.39
75051;BME280;63628;47.656;11.310;2022-12-08T01:24:20;94301.44;;;3.67;83.26
75051;BME280;63628;47.656;11.310;2022-12-08T01:26:47;94307.06;;;3.64;83.77
75051;BME280;63628;47.656;11.310;2022-12-08T01:29:14;94301.03;;;3.64;83.37
75051;BME280;63628;47.656;11.310;2022-12-08T01:31:41;94301.81;;;3.64;83.88
75051;BME280;63628;47.656;11.310;2022-12-08T01:34:09;94298.59;;;3.62;84.08
75051;BME280;63628;47.656;11.310;2022-12-08T01:36:36;94299.41;;;3.63;83.78
75051;BME280;63628;47.656;11.310;2022-12-08T01:39:06;94289.97;;;3.62;83.69
75051;BME280;63628;47.656;11.310;2022-12-08T01:41:35;94292.56;;;3.62;83.29
75051;BME280;63628;47.656;11.310;2022-12-08T01:47:08;94288.34;;;3.61;83.47
75051;BME280;63628;47.656;11.310;2022-12-08T01:49:36;94284.94;;;3.60;83.74
75051;BME280;63628;47.656;11.310;2022-12-08T01:52:08;94286.75;;;3.60;83.76
75051;BME280;63628;47.656;11.310;2022-12-08T01:54:38;94284.13;;;3.60;83.43
75051;BME280;63628;47.656;11.310;2022-12-08T01:57:09;94278.88;;;3.60;83.62
75051;BME280;63628;47.656;11.310;2022-12-08T01:59:38;94279.69;;;3.60;83.77
75051;BME280;63628;47.656;11.310;2022-12-08T02:02:07;94284.94;;;3.60;83.13
75051;BME280;63628;47.656;11.310;2022-12-08T02:04:36;94278.88;;;3.60;83.30
75051;BME280;63628;47.656;11.310;2022-12-08T02:07:03;94276.28;;;3.60;83.76
75051;BME280;63628;47.656;11.310;2022-12-08T02:09:34;94262.19;;;3.61;83.54
75051;BME280;63628;47.656;11.310;2022-12-08T02:12:01;94259.19;;;3.57;83.79
75051;BME280;63628;47.656;11.310;2022-12-08T02:14:27;94260.78;;;3.58;83.42
75051;BME280;63628;47.656;11.310;2022-12-08T02:16:59;94261.59;;;3.59;83.80
75051;BME280;63628;47.656;11.310;2022-12-08T02:19:47;94250.53;;;3.57;83.85
75051;BME280;63628;47.656;11.310;2022-12-08T02:22:26;94260.78;;;3.58;83.08
75051;BME280;63628;47.656;11.310;2022-12-08T02:25:02;94258.97;;;3.59;83.66
75051;BME280;63628;47.656;11.310;2022-12-08T02:27:40;94253.75;;;3.59;83.23
75051;BME280;63628;47.656;11.310;2022-12-08T02:30:16;94246.09;;;3.57;83.41
75051;BME280;63628;47.656;11.310;2022-12-08T02:33:20;94242.69;;;3.57;83.35
75051;BME280;63628;47.656;11.310;2022-12-08T02:35:56;94245.09;;;3.58;83.20
75051;BME280;63628;47.656;11.310;2022-12-08T02:38:34;94245.88;;;3.59;83.64
75051;BME280;63628;47.656;11.310;2022-12-08T02:41:11;94238.25;;;3.57;83.29
75051;BME280;63628;47.656;11.310;2022-12-08T02:43:44;94234.63;;;3.58;83.42
75051;BME280;63628;47.656;11.310;2022-12-08T02:46:15;94235.44;;;3.59;83.42
75051;BME280;63628;47.656;11.310;2022-12-08T02:48:44;94237.84;;;3.54;83.78
75051;BME280;63628;47.656;11.310;2022-12-08T02:51:12;94232.00;;;3.52;83.83
75051;BME280;63628;47.656;11.310;2022-12-08T02:53:39;94233.63;;;3.53;83.89
75051;BME280;63628;47.656;11.310;2022-12-08T02:56:15;94234.81;;;3.57;83.16
75051;BME280;63628;47.656;11.310;2022-12-08T02:59:06;94227.38;;;3.54;83.30
75051;BME280;63628;47.656;11.310;2022-12-08T03:01:49;94223.97;;;3.53;83.89
75051;BME280;63628;47.656;11.310;2022-12-08T03:04:22;94223.16;;;3.53;83.87
75051;BME280;63628;47.656;11.310;2022-12-08T03:06:56;94224.97;;;3.52;83.69
75051;BME280;63628;47.656;11.310;2022-12-08T03:09:31;94225.78;;;3.53;83.31
75051;BME280;63628;47.656;11.310;2022-12-08T03:12:03;94224.16;;;3.52;83.37
75051;BME280;63628;47.656;11.310;2022-12-08T03:14:32;94215.31;;;3.53;83.21
75051;BME280;63628;47.656;11.310;2022-12-08T03:17:00;94212.31;;;3.49;83.37
75051;BME280;63628;47.656;11.310;2022-12-08T03:19:31;94213.09;;;3.49;83.41
75051;BME280;63628;47.656;11.310;2022-12-08T03:22:02;94211.69;;;3.47;83.55
75051;BME280;63628;47.656;11.310;2022-12-08T03:24:33;94209.69;;;3.49;83.76
75051;BME280;63628;47.656;11.310;2022-12-08T03:27:03;94208.47;;;3.52;83.31
75051;BME280;63628;47.656;11.310;2022-12-08T03:29:29;94207.88;;;3.56;83.47
75051;BME280;63628;47.656;11.310;2022-12-08T03:32:02;94206.50;;;3.27;83.09
75051;BME280;63628;47.656;11.310;2022-12-08T03:34:33;94198.03;;;3.38;83.59
75051;BME280;63628;47.656;11.310;2022-12-08T03:37:02;94195.22;;;3.46;83.64
75051;BME280;63628;47.656;11.310;2022-12-08T03:39:29;94196.41;;;3.50;83.09
75051;BME280;63628;47.656;11.310;2022-12-08T03:41:55;94204.06;;;3.45;83.39
75051;BME280;63628;47.656;11.310;2022-12-08T03:44:22;94197.22;;;3.44;83.93
75051;BME280;63628;47.656;11.310;2022-12-08T03:46:48;94188.78;;;3.42;83.34
75051;BME280;63628;47.656;11.310;2022-12-08T03:49:15;94189.38;;;3.44;83.82
75051;BME280;63628;47.656;11.310;2022-12-08T03:51:42;94182.94;;;3.47;83.35
75051;BME280;63628;47.656;11.310;2022-12-08T03:54:10;94182.94;;;3.47;83.63
75051;BME280;63628;47.656;11.310;2022-12-08T03:56:37;94182.94;;;3.47;83.78
75051;BME280;63628;47.656;11.310;2022-12-08T03:59:05;94183.53;;;3.49;83.28
75051;BME280;63628;47.656;11.310;2022-12-08T04:01:32;94180.13;;;3.48;82.87
75051;BME280;63628;47.656;11.310;2022-12-08T04:03:59;94180.53;;;3.45;83.79
75051;BME280;63628;47.656;11.310;2022-12-08T04:06:26;94179.50;;;3.46;83.54
75051;BME280;63628;47.656;11.310;2022-12-08T04:08:53;94177.28;;;3.50;83.00
75051;BME280;63628;47.656;11.310;2022-12-08T04:11:21;94178.91;;;3.44;83.55
75051;BME280;63628;47.656;11.310;2022-12-08T04:13:47;94176.50;;;3.43;83.09
75051;BME280;63628;47.656;11.310;2022-12-08T04:16:15;94183.94;;;3.46;83.21
75051;BME280;63628;47.656;11.310;2022-12-08T04:18:42;94177.31;;;3.43;83.62
75051;BME280;63628;47.656;11.310;2022-12-08T04:21:09;94176.50;;;3.43;83.79
75051;BME280;63628;47.656;11.310;2022-12-08T04:23:35;94180.94;;;3.42;83.55
75051;BME280;63628;47.656;11.310;2022-12-08T04:26:02;94177.72;;;3.40;83.45
75051;BME280;63628;47.656;11.310;2022-12-08T04:28:30;94175.09;;;3.40;83.41
75051;BME280;63628;47.656;11.310;2022-12-08T04:30:57;94173.28;;;3.41;83.54
75051;BME280;63628;47.656;11.310;2022-12-08T04:33:24;94173.28;;;3.41;83.67
75051;BME280;63628;47.656;11.310;2022-12-08T04:35:50;94172.28;;;3.42;83.28
75051;BME280;63628;47.656;11.310;2022-12-08T04:38:17;94173.28;;;3.41;83.54
75051;BME280;63628;47.656;11.310;2022-12-08T04:40:44;94170.47;;;3.42;83.63
75051;BME280;63628;47.656;11.310;2022-12-08T04:43:10;94170.69;;;3.41;83.63
75051;BME280;63628;47.656;11.310;2022-12-08T04:45:39;94169.88;;;3.40;83.58
75051;BME280;63628;47.656;11.310;2022-12-08T04:48:06;94172.69;;;3.39;83.81
75051;BME280;63628;47.656;11.310;2022-12-08T04:50:32;94164.84;;;3.39;83.87
75051;BME280;63628;47.656;11.310;2022-12-08T04:52:59;94164.66;;;3.40;83.48
75051;BME280;63628;47.656;11.310;2022-12-08T04:55:26;94165.25;;;3.42;83.52
75051;BME280;63628;47.656;11.310;2022-12-08T04:57:52;94166.84;;;3.43;83.18
75051;BME280;63628;47.656;11.310;2022-12-08T05:00:19;94162.03;;;3.40;83.39
75051;BME280;63628;47.656;11.310;2022-12-08T05:02:47;94166.66;;;3.38;83.58
75051;BME280;63628;47.656;11.310;2022-12-08T05:05:13;94164.03;;;3.38;83.50
75051;BME280;63628;47.656;11.310;2022-12-08T05:07:40;94162.63;;;3.36;83.03
75051;BME280;63628;47.656;11.310;2022-12-08T05:10:07;94162.03;;;3.40;83.66
75051;BME280;63628;47.656;11.310;2022-12-08T05:12:34;94163.22;;;3.25;82.90
75051;BME280;63628;47.656;11.310;2022-12-08T05:15:00;94163.84;;;3.33;83.39
75051;BME280;63628;47.656;11.310;2022-12-08T05:17:27;94163.25;;;3.38;83.23
75051;BME280;63628;47.656;11.310;2022-12-08T05:19:55;94160.22;;;3.41;83.48
75051;BME280;63628;47.656;11.310;2022-12-08T05:22:21;94157.03;;;2.79;81.35
75051;BME280;63628;47.656;11.310;2022-12-08T05:24:48;94159.81;;;3.24;84.28
75051;BME280;63628;47.656;11.310;2022-12-08T05:27:14;94153.59;;;3.32;83.81
75051;BME280;63628;47.656;11.310;2022-12-08T05:29:41;94148.38;;;3.32;83.96
75051;BME280;63628;47.656;11.310;2022-12-08T05:32:07;94148.75;;;3.35;83.69
75051;BME280;63628;47.656;11.310;2022-12-08T05:34:34;94146.94;;;3.36;83.72
75051;BME280;63628;47.656;11.310;2022-12-08T05:37:02;94144.75;;;3.33;83.62
75051;BME280;63628;47.656;11.310;2022-12-08T05:39:29;94144.53;;;3.34;83.50
75051;BME280;63628;47.656;11.310;2022-12-08T05:41:56;94147.97;;;3.35;83.30
75051;BME280;63628;47.656;11.310;2022-12-08T05:44:22;94144.75;;;3.33;83.25
75051;BME280;63628;47.656;11.310;2022-12-08T05:46:49;94146.75;;;3.31;83.57
75051;BME280;63628;47.656;11.310;2022-12-08T05:49:16;94150.19;;;3.31;83.48
75051;BME280;63628;47.656;11.310;2022-12-08T05:51:42;94141.13;;;3.34;83.67
75051;BME280;63628;47.656;11.310;2022-12-08T05:54:10;94139.09;;;3.36;83.79
75051;BME280;63628;47.656;11.310;2022-12-08T05:56:37;94143.72;;;3.34;83.23
75051;BME280;63628;47.656;11.310;2022-12-08T05:59:04;94138.09;;;3.30;83.85
75051;BME280;63628;47.656;11.310;2022-12-08T06:01:31;94138.72;;;3.32;83.61
75051;BME280;63628;47.656;11.310;2022-12-08T06:03:59;94137.09;;;3.31;83.98
75051;BME280;63628;47.656;11.310;2022-12-08T06:06:26;94142.13;;;3.33;83.56
75051;BME280;63628;47.656;11.310;2022-12-08T06:08:53;94139.72;;;3.31;83.66
75051;BME280;63628;47.656;11.310;2022-12-08T06:11:23;94137.69;;;3.33;83.60
75051;BME280;63628;47.656;11.310;2022-12-08T06:13:50;94138.72;;;3.32;83.17
75051;BME280;63628;47.656;11.310;2022-12-08T06:16:17;94136.50;;;3.29;83.75
75051;BME280;63628;47.656;11.310;2022-12-08T06:18:44;94137.31;;;3.30;83.33
75051;BME280;63628;47.656;11.310;2022-12-08T06:21:12;94137.31;;;3.30;83.88
75051;BME280;63628;47.656;11.310;2022-12-08T06:23:40;94136.31;;;3.31;83.61
75051;BME280;63628;47.656;11.310;2022-12-08T06:26:09;94138.31;;;3.35;83.64
75051;BME280;63628;47.656;11.310;2022-12-08T06:28:38;94129.25;;;3.31;82.95
75051;BME280;63628;47.656;11.310;2022-12-08T06:31:07;94134.50;;;3.31;83.54
75051;BME280;63628;47.656;11.310;2022-12-08T06:33:33;94128.66;;;3.29;83.55
75051;BME280;63628;47.656;11.310;2022-12-08T06:36:00;94128.66;;;3.29;83.37
75051;BME280;63628;47.656;11.310;2022-12-08T06:38:27;94127.84;;;3.29;83.82
75051;BME280;63628;47.656;11.310;2022-12-08T06:40:53;94129.88;;;3.27;83.59
75051;BME280;63628;47.656;11.310;2022-12-08T06:43:20;94134.09;;;3.28;83.55
75051;BME280;63628;47.656;11.310;2022-12-08T06:45:48;94130.47;;;3.29;83.01
75051;BME280;63628;47.656;11.310;2022-12-08T06:48:16;94129.66;;;3.28;83.65
75051;BME280;63628;47.656;11.310;2022-12-08T06:50:43;94129.88;;;3.27;83.21
75051;BME280;63628;47.656;11.310;2022-12-08T06:53:10;94136.72;;;3.28;83.41
75051;BME280;63628;47.656;11.310;2022-12-08T06:55:36;94129.88;;;3.27;83.10
75051;BME280;63628;47.656;11.310;2022-12-08T06:58:23;94133.50;;;3.26;83.84
75051;BME280;63628;47.656;11.310;2022-12-08T07:00:51;94132.69;;;3.25;83.32
75051;BME280;63628;47.656;11.310;2022-12-08T07:03:18;94131.06;;;3.24;83.38
75051;BME280;63628;47.656;11.310;2022-12-08T07:05:44;94137.72;;;3.27;83.61
75051;BME280;63628;47.656;11.310;2022-12-08T07:08:11;94141.34;;;3.26;83.19
75051;BME280;63628;47.656;11.310;2022-12-08T07:10:38;94145.34;;;3.28;83.22
75051;BME280;63628;47.656;11.310;2022-12-08T07:13:04;94143.16;;;3.25;83.50
75051;BME280;63628;47.656;11.310;2022-12-08T07:15:31;94143.31;;;3.24;83.71
75051;BME280;63628;47.656;11.310;2022-12-08T07:17:59;94145.94;;;3.24;83.53
75051;BME280;63628;47.656;11.310;2022-12-08T07:20:26;94135.47;;;3.24;83.48
75051;BME280;63628;47.656;11.310;2022-12-08T07:22:52;94141.50;;;3.24;83.74
75051;BME280;63628;47.656;11.310;2022-12-08T07:25:19;94137.72;;;3.27;83.59
75051;BME280;63628;47.656;11.310;2022-12-08T07:27:46;94139.69;;;3.25;83.44
75051;BME280;63628;47.656;11.310;2022-12-08T07:30:13;94148.53;;;3.24;83.43
75051;BME280;63628;47.656;11.310;2022-12-08T07:32:40;94146.75;;;3.24;83.78
75051;BME280;63628;47.656;11.310;2022-12-08T07:35:08;94143.31;;;3.24;83.92
75051;BME280;63628;47.656;11.310;2022-12-08T07:37:36;94134.88;;;3.22;83.29
75051;BME280;63628;47.656;11.310;2022-12-08T07:40:04;94140.91;;;3.22;83.83
75051;BME280;63628;47.656;11.310;2022-12-08T07:42:31;94136.69;;;3.21;83.79
75051;BME280;63628;47.656;11.310;2022-12-08T07:44:58;94141.72;;;3.23;83.56
75051;BME280;63628;47.656;11.310;2022-12-08T07:47:25;94139.09;;;3.23;83.74
75051;BME280;63628;47.656;11.310;2022-12-08T07:49:52;94133.88;;;3.23;83.37
75051;BME280;63628;47.656;11.310;2022-12-08T07:52:20;94132.88;;;3.24;83.25
75051;BME280;63628;47.656;11.310;2022-12-08T07:54:46;94140.72;;;3.24;83.25
75051;BME280;63628;47.656;11.310;2022-12-08T07:57:13;94140.09;;;3.22;83.67
75051;BME280;63628;47.656;11.310;2022-12-08T07:59:40;94140.09;;;3.22;83.42
75051;BME280;63628;47.656;11.310;2022-12-08T08:02:14;94138.09;;;3.24;83.63
75051;BME280;63628;47.656;11.310;2022-12-08T08:04:51;94138.31;;;3.29;83.20
75051;BME280;63628;47.656;11.310;2022-12-08T08:07:19;94138.50;;;3.40;82.97
75051;BME280;63628;47.656;11.310;2022-12-08T08:09:46;94130.50;;;4.94;79.96
75051;BME280;63628;47.656;11.310;2022-12-08T08:12:12;94130.28;;;4.71;79.76
75051;BME280;63628;47.656;11.310;2022-12-08T08:14:57;94121.72;;;4.57;83.08
75051;BME280;63628;47.656;11.310;2022-12-08T08:17:24;94118.53;;;5.48;83.36
75051;BME280;63628;47.656;11.310;2022-12-08T08:19:51;94122.66;;;5.99;77.47
75051;BME280;63628;47.656;11.310;2022-12-08T08:22:17;94117.91;;;7.21;77.69
75051;BME280;63628;47.656;11.310;2022-12-08T08:24:45;94110.75;;;8.03;74.88
75051;BME280;63628;47.656;11.310;2022-12-08T08:27:12;94122.47;;;8.36;71.60
75051;BME280;63628;47.656;11.310;2022-12-08T08:29:39;94119.47;;;6.98;71.17
75051;BME280;63628;47.656;11.310;2022-12-08T08:32:05;94129.97;;;4.54;77.96
75051;BME280;63628;47.656;11.310;2022-12-08T08:34:32;94126.53;;;6.86;80.17
75051;BME280;63628;47.656;11.310;2022-12-08T08:36:59;94117.31;;;8.69;70.95
75051;BME280;63628;47.656;11.310;2022-12-08T08:39:25;94122.50;;;8.81;69.83
75051;BME280;63628;47.656;11.310;2022-12-08T08:41:53;94132.94;;;4.64;77.71
75051;BME280;63628;47.656;11.310;2022-12-08T08:44:20;94125.59;;;4.10;81.41
75051;BME280;63628;47.656;11.310;2022-12-08T08:46:46;94116.25;;;9.32;72.30
75051;BME280;63628;47.656;11.310;2022-12-08T08:49:13;94112.34;;;10.34;66.72
75051;BME280;63628;47.656;11.310;2022-12-08T08:51:40;94120.16;;;9.46;64.11
75051;BME280;63628;47.656;11.310;2022-12-08T08:54:07;94116.19;;;10.43;60.39
75051;BME280;63628;47.656;11.310;2022-12-08T08:56:34;94126.72;;;7.61;74.83
75051;BME280;63628;47.656;11.310;2022-12-08T08:59:02;94117.50;;;11.63;57.32
75051;BME280;63628;47.656;11.310;2022-12-08T09:01:29;94118.19;;;10.58;62.60
75051;BME280;63628;47.656;11.310;2022-12-08T09:03:56;94113.75;;;11.59;55.06
75051;BME280;63628;47.656;11.310;2022-12-08T09:06:24;94112.56;;;11.72;57.00
75051;BME280;63628;47.656;11.310;2022-12-08T09:08:51;94111.06;;;12.44;56.74
75051;BME280;63628;47.656;11.310;2022-12-08T09:11:17;94110.56;;;12.47;51.91
75051;BME280;63628;47.656;11.310;2022-12-08T09:13:46;94108.44;;;12.44;52.40
75051;BME280;63628;47.656;11.310;2022-12-08T09:16:16;94103.22;;;12.99;55.42
75051;BME280;63628;47.656;11.310;2022-12-08T09:18:43;94114.88;;;9.13;64.82
75051;BME280;63628;47.656;11.310;2022-12-08T09:21:12;94115.69;;;7.76;69.46
75051;BME280;63628;47.656;11.310;2022-12-08T09:23:41;94104.16;;;10.84;62.11
75051;BME280;63628;47.656;11.310;2022-12-08T09:26:08;94109.31;;;6.30;71.40
75051;BME280;63628;47.656;11.310;2022-12-08T09:28:35;94110.16;;;6.43;75.49
75051;BME280;63628;47.656;11.310;2022-12-08T09:31:01;94105.06;;;8.63;64.18
75051;BME280;63628;47.656;11.310;2022-12-08T09:33:29;94100.66;;;8.52;67.88
75051;BME280;63628;47.656;11.310;2022-12-08T09:36:01;94098.97;;;8.34;65.55
75051;BME280;63628;47.656;11.310;2022-12-08T09:38:28;94075.53;;;11.87;54.87
75051;BME280;63628;47.656;11.310;2022-12-08T09:40:54;94080.34;;;11.16;56.28
75051;BME280;63628;47.656;11.310;2022-12-08T09:43:39;94092.41;;;9.10;64.06
75051;BME280;63628;47.656;11.310;2022-12-08T09:46:13;94079.75;;;10.28;55.50
75051;BME280;63628;47.656;11.310;2022-12-08T09:48:42;94072.81;;;10.44;56.93
75051;BME280;63628;47.656;11.310;2022-12-08T09:51:11;94084.47;;;8.77;67.12
75051;BME280;63628;47.656;11.310;2022-12-08T09:53:43;94073.06;;;11.75;51.62
75051;BME280;63628;47.656;11.310;2022-12-08T09:56:14;94061.78;;;10.30;49.05
75051;BME280;63628;47.656;11.310;2022-12-08T09:58:46;94068.94;;;8.97;62.68
75051;BME280;63628;47.656;11.310;2022-12-08T10:01:18;94064.16;;;9.66;59.75
75051;BME280;63628;47.656;11.310;2022-12-08T10:03:47;94063.44;;;8.37;65.09
75051;BME280;63628;47.656;11.310;2022-12-08T10:06:18;94066.84;;;6.98;69.09
75051;BME280;63628;47.656;11.310;2022-12-08T10:08:51;94057.44;;;5.78;74.52
75051;BME280;63628;47.656;11.310;2022-12-08T10:11:28;94061.09;;;5.40;76.03
75051;BME280;63628;47.656;11.310;2022-12-08T10:14:05;94049.09;;;5.07;77.51
75051;BME280;63628;47.656;11.310;2022-12-08T10:16:38;94053.66;;;4.94;78.39
75051;BME280;63628;47.656;11.310;2022-12-08T10:19:13;94044.34;;;4.98;79.45
75051;BME280;63628;47.656;11.310;2022-12-08T10:21:41;94054.56;;;5.06;78.11
75051;BME280;63628;47.656;11.310;2022-12-08T10:24:14;94046.84;;;5.11;78.43
75051;BME280;63628;47.656;11.310;2022-12-08T10:26:41;94036.03;;;5.44;73.10
75051;BME280;63628;47.656;11.310;2022-12-08T10:29:11;94037.75;;;6.05;57.01
75051;BME280;63628;47.656;11.310;2022-12-08T10:31:38;94028.81;;;6.48;62.00
75051;BME280;63628;47.656;11.310;2022-12-08T10:34:13;94030.81;;;6.22;70.88
75051;BME280;63628;47.656;11.310;2022-12-08T10:36:48;94028.34;;;7.16;58.24
75051;BME280;63628;47.656;11.310;2022-12-08T10:39:35;94031.78;;;5.61;73.08
75051;BME280;63628;47.656;11.310;2022-12-08T10:42:08;94030.38;;;5.04;77.25
75051;BME280;63628;47.656;11.310;2022-12-08T10:44:51;94032.13;;;5.10;77.97
75051;BME280;63628;47.656;11.310;2022-12-08T10:47:20;94016.66;;;7.00;66.49
75051;BME280;63628;47.656;11.310;2022-12-08T10:50:05;94019.28;;;6.88;66.44
75051;BME280;63628;47.656;11.310;2022-12-08T10:52:36;94009.94;;;5.79;73.46
75051;BME280;63628;47.656;11.310;2022-12-08T10:55:13;94009.56;;;6.12;72.76
75051;BME280;63628;47.656;11.310;2022-12-08T10:57:40;94007.22;;;5.92;75.13
75051;BME280;63628;47.656;11.310;2022-12-08T11:00:11;94001.19;;;5.19;77.41
75051;BME280;63628;47.656;11.310;2022-12-08T11:02:52;94004.16;;;5.04;78.49
75051;BME280;63628;47.656;11.310;2022-12-08T11:05:22;93995.19;;;4.93;79.36
75051;BME280;63628;47.656;11.310;2022-12-08T11:07:53;93990.19;;;4.92;79.65
75051;BME280;63628;47.656;11.310;2022-12-08T11:10:27;93995.41;;;4.92;79.42
75051;BME280;63628;47.656;11.310;2022-12-08T11:12:58;93988.94;;;4.94;80.03
75051;BME280;63628;47.656;11.310;2022-12-08T11:15:32;93980.63;;;6.54;69.07
75051;BME280;63628;47.656;11.310;2022-12-08T11:18:05;93980.66;;;6.77;69.51
75051;BME280;63628;47.656;11.310;2022-12-08T11:20:39;93980.50;;;5.95;74.24
75051;BME280;63628;47.656;11.310;2022-12-08T11:23:19;93978.69;;;6.73;68.96
75051;BME280;63628;47.656;11.310;2022-12-08T11:25:47;93976.84;;;6.50;68.99
75051;BME280;63628;47.656;11.310;2022-12-08T11:28:15;93964.88;;;6.77;67.33
75051;BME280;63628;47.656;11.310;2022-12-08T11:30:48;93961.91;;;5.97;72.40
75051;BME280;63628;47.656;11.310;2022-12-08T11:33:21;93978.16;;;5.02;78.22
75051;BME280;63628;47.656;11.310;2022-12-08T11:35:53;93973.44;;;4.93;80.07
75051;BME280;63628;47.656;11.310;2022-12-08T11:38:23;93960.31;;;5.78;72.34
75051;BME280;63628;47.656;11.310;2022-12-08T11:40:52;93958.50;;;5.30;77.50
75051;BME280;63628;47.656;11.310;2022-12-08T11:43:28;93964.63;;;5.42;76.76
75051;BME280;63628;47.656;11.310;2022-12-08T11:45:58;93962.78;;;5.43;77.09
75051;BME280;63628;47.656;11.310;2022-12-08T11:48:29;93957.47;;;5.13;79.29
75051;BME280;63628;47.656;11.310;2022-12-08T11:51:02;93959.38;;;5.42;70.90
75051;BME280;63628;47.656;11.310;2022-12-08T11:53:34;93958.66;;;4.98;78.60
75051;BME280;63628;47.656;11.310;2022-12-08T11:56:06;93955.16;;;5.23;63.59
75051;BME280;63628;47.656;11.310;2022-12-08T11:58:38;93952.91;;;4.90;62.65
75051;BME280;63628;47.656;11.310;2022-12-08T12:01:14;93948.31;;;5.03;64.44
75051;BME280;63628;47.656;11.310;2022-12-08T12:03:45;93950.50;;;4.88;74.30
75051;BME280;63628;47.656;11.310;2022-12-08T12:06:28;93936.28;;;5.14;63.75
75051;BME280;63628;47.656;11.310;2022-12-08T12:09:30;93928.72;;;5.06;64.41
75051;BME280;63628;47.656;11.310;2022-12-08T12:12:05;93938.53;;;4.74;71.35
75051;BME280;63628;47.656;11.310;2022-12-08T12:14:56;93935.72;;;4.94;72.46
75051;BME280;63628;47.656;11.310;2022-12-08T12:17:41;93937.38;;;4.70;74.80
75051;BME280;63628;47.656;11.310;2022-12-08T12:20:14;93938.53;;;4.06;64.06
75051;BME280;63628;47.656;11.310;2022-12-08T12:22:46;93929.13;;;4.23;74.96
75051;BME280;63628;47.656;11.310;2022-12-08T12:25:22;93924.63;;;4.30;75.51
75051;BME280;63628;47.656;11.310;2022-12-08T12:27:51;93921.81;;;4.32;75.65
75051;BME280;63628;47.656;11.310;2022-12-08T12:30:24;93922.13;;;3.61;64.49
75051;BME280;63628;47.656;11.310;2022-12-08T12:32:54;93920.22;;;4.06;76.93
75051;BME280;63628;47.656;11.310;2022-12-08T12:35:31;93928.38;;;4.41;79.63
75051;BME280;63628;47.656;11.310;2022-12-08T12:38:02;93924.13;;;4.22;73.48
75051;BME280;63628;47.656;11.310;2022-12-08T12:40:36;93928.59;;;4.14;77.48
75051;BME280;63628;47.656;11.310;2022-12-08T12:43:29;93921.16;;;4.36;79.26
75051;BME280;63628;47.656;11.310;2022-12-08T12:46:40;93918.75;;;4.35;78.89
75051;BME280;63628;47.656;11.310;2022-12-08T12:49:49;93914.56;;;4.09;77.22
75051;BME280;63628;47.656;11.310;2022-12-08T12:52:45;93915.91;;;4.36;79.77
75051;BME280;63628;47.656;11.310;2022-12-08T12:55:27;93918.25;;;4.44;81.20
75051;BME280;63628;47.656;11.310;2022-12-08T12:57:55;93912.97;;;3.76;66.58
75051;BME280;63628;47.656;11.310;2022-12-08T13:00:24;93906.22;;;3.24;64.00
75051;BME280;63628;47.656;11.310;2022-12-08T13:02:52;93904.25;;;3.19;63.60
75051;BME280;63628;47.656;11.310;2022-12-08T13:05:22;93899.41;;;3.23;64.15
75051;BME280;63628;47.656;11.310;2022-12-08T13:07:52;93893.13;;;2.93;63.17
75051;BME280;63628;47.656;11.310;2022-12-08T13:10:22;93898.69;;;3.03;64.72
75051;BME280;63628;47.656;11.310;2022-12-08T13:13:05;93899.19;;;3.94;79.12
75051;BME280;63628;47.656;11.310;2022-12-08T13:15:34;93894.13;;;4.18;80.16
75051;BME280;63628;47.656;11.310;2022-12-08T13:18:02;93892.47;;;4.23;81.15